05:34
Airports
History
Links
Donate
Help keep this website running!
PayPal
Bitcoin
This page is community maintained. The information is intended for PC simulator navigation or reference.
Always use approved charts for navigation.
YBMY
BamyiliEdited 07-Mar-2012
Bamyili (YBMY)
Beswick Creek, Northern Territory, Australia (852)
4
Lat/Lng:14° 31' 10.42" S / 132° 52' 55.42" E
-14.519561 / 132.88206
Elevation:706'ft / 215mMSL
ID / ICAO:YBMY
Runways:1
Longest:11-29
Dirt 933m / 3,062ft
(Edited 2012-03-07) [ Sign in to Edit ]
Nearby Weather05:00 GMT 2017-09-20
Nearby weather at YPTN, Tindal (Military) located 33.8 nautical miles from YBMY
Altimeter: 29.85
Visibility: 6.2 statute miles
Wind: 9 knots (from 150°)
Temp: 36°c / 97°f
Humidity: 16.9%

METAR: YPTN 200500Z AUTO 15009G19KT 100V170 9999 // NCD 36/07 Q1011

(Powered by phpweather)
Airport Radio Frequencies
CTAF: 126.7
Runway 11 / 29
Dimensions:933.4 x 11.9m 3062' x 39'ft
Surface:Dirt
Runway 11 [A]Runway 29 [B]
Heading:111°TH 291°TH
Lat:
Lng:
14° 31' 4.86"S
132° 52' 40.85"E
14° 31' 15.98"S
132° 53' 9.98"E
User Notes and Comments
14° 31' 10.42" S / 132° 52' 55.42" E
Distance To
Airport ID:
Nearby Airports
4 BESWICK 16.1 NM
YBES ESE 107°
4 EVA VALLEY 17.9 NM
YEVV NNW 348°
4 MATARANKA TOWNSHIP 30.1 NM
YMAR SSE 158°
4 MATARANKA HS RESORT 32.9 NM
YMKA SSE 149°
(C) Tindal (Military) 33.8 NM
YPTN ( WX ) W 269°
4 MAUDE CREEK 34.0 NM
YMUD WNW 285°
(U) MANBULLO 46.6 NM
YMAX W 263°
VFR Chart
Flight Planning at SkyVector.com